sensor_id;sensor_type;location;lat;lon;timestamp;pressure;altitude;pressure_sealevel;temperature;humidity
8061;BME280;4073;42.626;25.386;2022-10-31T00:00:18;97421.03;;;14.69;60.70
8061;BME280;4073;42.626;25.386;2022-10-31T00:02:43;97429.25;;;14.78;60.76
8061;BME280;4073;42.626;25.386;2022-10-31T00:05:10;97434.63;;;14.78;60.80
8061;BME280;4073;42.626;25.386;2022-10-31T00:07:36;97427.84;;;14.62;61.62
8061;BME280;4073;42.626;25.386;2022-10-31T00:10:02;97410.25;;;14.51;61.97
8061;BME280;4073;42.626;25.386;2022-10-31T00:12:27;97438.19;;;14.55;61.99
8061;BME280;4073;42.626;25.386;2022-10-31T00:14:52;97433.44;;;14.47;62.13
8061;BME280;4073;42.626;25.386;2022-10-31T00:17:18;97436.41;;;14.45;62.42
8061;BME280;4073;42.626;25.386;2022-10-31T00:19:44;97428.03;;;14.28;63.12
8061;BME280;4073;42.626;25.386;2022-10-31T00:22:10;97428.25;;;14.32;63.14
8061;BME280;4073;42.626;25.386;2022-10-31T00:24:35;97431.97;;;14.36;62.94
8061;BME280;4073;42.626;25.386;2022-10-31T00:27:01;97432.50;;;14.38;63.20
8061;BME280;4073;42.626;25.386;2022-10-31T00:29:26;97437.34;;;14.36;63.74
8061;BME280;4073;42.626;25.386;2022-10-31T00:31:52;97424.19;;;14.34;63.45
8061;BME280;4073;42.626;25.386;2022-10-31T00:34:18;97423.03;;;14.40;63.37
8061;BME280;4073;42.626;25.386;2022-10-31T00:36:43;97432.50;;;14.38;63.73
8061;BME280;4073;42.626;25.386;2022-10-31T00:39:09;97420.50;;;14.49;63.21
8061;BME280;4073;42.626;25.386;2022-10-31T00:41:34;97406.81;;;14.45;63.36
8061;BME280;4073;42.626;25.386;2022-10-31T00:43:59;97410.75;;;14.53;63.31
8061;BME280;4073;42.626;25.386;2022-10-31T00:46:25;97411.75;;;14.57;63.25
8061;BME280;4073;42.626;25.386;2022-10-31T00:48:50;97409.59;;;14.59;63.16
8061;BME280;4073;42.626;25.386;2022-10-31T00:51:16;97413.53;;;14.66;62.80
8061;BME280;4073;42.626;25.386;2022-10-31T00:53:41;97413.16;;;14.73;62.34
8061;BME280;4073;42.626;25.386;2022-10-31T00:56:07;97418.63;;;14.68;62.85
8061;BME280;4073;42.626;25.386;2022-10-31T00:58:32;97417.53;;;14.69;63.16
8061;BME280;4073;42.626;25.386;2022-10-31T01:00:58;97420.50;;;14.67;63.11
8061;BME280;4073;42.626;25.386;2022-10-31T01:03:28;97422.91;;;14.69;63.02
8061;BME280;4073;42.626;25.386;2022-10-31T01:08:32;97410.84;;;14.85;62.77
8061;BME280;4073;42.626;25.386;2022-10-31T01:11:07;97416.69;;;14.87;62.37
8061;BME280;4073;42.626;25.386;2022-10-31T01:13:33;97419.78;;;14.80;62.99
8061;BME280;4073;42.626;25.386;2022-10-31T01:16:00;97412.19;;;14.82;62.99
8061;BME280;4073;42.626;25.386;2022-10-31T01:18:26;97422.09;;;14.87;63.16
8061;BME280;4073;42.626;25.386;2022-10-31T01:21:07;97423.53;;;14.98;62.91
8061;BME280;4073;42.626;25.386;2022-10-31T01:23:33;97416.47;;;15.02;62.68
8061;BME280;4073;42.626;25.386;2022-10-31T01:28:29;97416.25;;;14.98;63.29
8061;BME280;4073;42.626;25.386;2022-10-31T01:30:54;97403.81;;;14.84;63.42
8061;BME280;4073;42.626;25.386;2022-10-31T01:33:20;97409.34;;;14.92;63.63
8061;BME280;4073;42.626;25.386;2022-10-31T01:35:45;97407.00;;;15.04;63.34
8061;BME280;4073;42.626;25.386;2022-10-31T01:38:11;97408.53;;;15.10;63.32
8061;BME280;4073;42.626;25.386;2022-10-31T01:40:36;97411.72;;;15.12;63.26
8061;BME280;4073;42.626;25.386;2022-10-31T01:43:01;97411.72;;;15.12;63.23
8061;BME280;4073;42.626;25.386;2022-10-31T01:45:27;97389.41;;;15.12;63.19
8061;BME280;4073;42.626;25.386;2022-10-31T01:47:52;97389.47;;;15.07;63.47
8061;BME280;4073;42.626;25.386;2022-10-31T01:50:28;97400.66;;;15.14;63.49
8061;BME280;4073;42.626;25.386;2022-10-31T01:52:56;97390.16;;;15.12;63.80
8061;BME280;4073;42.626;25.386;2022-10-31T01:57:52;97396.16;;;15.09;63.97
8061;BME280;4073;42.626;25.386;2022-10-31T02:00:20;97393.25;;;15.06;64.33
8061;BME280;4073;42.626;25.386;2022-10-31T02:02:47;97387.66;;;15.02;64.39
8061;BME280;4073;42.626;25.386;2022-10-31T02:05:19;97395.13;;;15.05;64.75
8061;BME280;4073;42.626;25.386;2022-10-31T02:08:09;97393.84;;;15.03;64.91
8061;BME280;4073;42.626;25.386;2022-10-31T02:10:38;97392.59;;;14.95;65.47
8061;BME280;4073;42.626;25.386;2022-10-31T02:13:06;97378.03;;;14.96;65.85
8061;BME280;4073;42.626;25.386;2022-10-31T02:15:33;97379.22;;;15.09;68.28
8061;BME280;4073;42.626;25.386;2022-10-31T02:18:00;97391.38;;;15.38;64.86
8061;BME280;4073;42.626;25.386;2022-10-31T02:20:32;97379.06;;;15.32;64.20
8061;BME280;4073;42.626;25.386;2022-10-31T02:36:46;97397.66;;;16.29;64.51
8061;BME280;4073;42.626;25.386;2022-10-31T02:39:26;97399.56;;;16.55;63.92
8061;BME280;4073;42.626;25.386;2022-10-31T02:42:07;97405.59;;;16.74;60.93
8061;BME280;4073;42.626;25.386;2022-10-31T02:47:17;97424.63;;;16.91;59.05
8061;BME280;4073;42.626;25.386;2022-10-31T02:52:21;97422.41;;;16.71;59.48
8061;BME280;4073;42.626;25.386;2022-10-31T02:54:48;97407.44;;;16.65;59.96
8061;BME280;4073;42.626;25.386;2022-10-31T02:57:16;97403.41;;;16.76;62.23
8061;BME280;4073;42.626;25.386;2022-10-31T02:59:53;97421.31;;;17.38;60.09
8061;BME280;4073;42.626;25.386;2022-10-31T03:07:46;97426.56;;;17.87;57.83
8061;BME280;4073;42.626;25.386;2022-10-31T03:15:30;97433.88;;;17.87;57.46
8061;BME280;4073;42.626;25.386;2022-10-31T03:18:04;97435.94;;;17.90;57.55
8061;BME280;4073;42.626;25.386;2022-10-31T03:21:04;97438.66;;;17.90;57.18
8061;BME280;4073;42.626;25.386;2022-10-31T03:23:32;97439.78;;;17.89;56.95
8061;BME280;4073;42.626;25.386;2022-10-31T03:26:01;97445.03;;;17.94;57.29
8061;BME280;4073;42.626;25.386;2022-10-31T03:28:31;97424.28;;;17.81;57.34
8061;BME280;4073;42.626;25.386;2022-10-31T03:30:59;97434.97;;;17.86;57.41
8061;BME280;4073;42.626;25.386;2022-10-31T03:35:58;97430.63;;;17.76;57.73
8061;BME280;4073;42.626;25.386;2022-10-31T03:38:26;97424.25;;;17.72;58.20
8061;BME280;4073;42.626;25.386;2022-10-31T03:40:55;97422.41;;;17.81;57.91
8061;BME280;4073;42.626;25.386;2022-10-31T03:43:28;97427.31;;;17.79;57.94
8061;BME280;4073;42.626;25.386;2022-10-31T03:45:56;97426.06;;;17.85;57.94
8061;BME280;4073;42.626;25.386;2022-10-31T03:48:22;97430.66;;;17.85;58.31
8061;BME280;4073;42.626;25.386;2022-10-31T03:53:34;97434.13;;;18.08;57.82
8061;BME280;4073;42.626;25.386;2022-10-31T03:56:21;97454.81;;;18.12;57.54
8061;BME280;4073;42.626;25.386;2022-10-31T04:01:21;97495.41;;;18.12;57.51
8061;BME280;4073;42.626;25.386;2022-10-31T04:03:48;97478.34;;;18.03;57.60
8061;BME280;4073;42.626;25.386;2022-10-31T04:06:14;97494.88;;;18.02;57.90
8061;BME280;4073;42.626;25.386;2022-10-31T04:08:45;97485.09;;;17.92;58.14
8061;BME280;4073;42.626;25.386;2022-10-31T04:11:14;97483.38;;;17.87;58.21
8061;BME280;4073;42.626;25.386;2022-10-31T04:13:43;97487.28;;;17.81;58.82
8061;BME280;4073;42.626;25.386;2022-10-31T04:16:10;97492.09;;;17.84;59.10
8061;BME280;4073;42.626;25.386;2022-10-31T04:18:36;97497.19;;;17.86;59.30
8061;BME280;4073;42.626;25.386;2022-10-31T04:21:04;97502.81;;;17.67;59.96
8061;BME280;4073;42.626;25.386;2022-10-31T04:23:30;97511.03;;;17.62;60.15
8061;BME280;4073;42.626;25.386;2022-10-31T04:25:55;97519.28;;;17.57;60.70
8061;BME280;4073;42.626;25.386;2022-10-31T04:28:21;97517.34;;;17.58;60.60
8061;BME280;4073;42.626;25.386;2022-10-31T04:30:47;97506.94;;;17.65;60.52
8061;BME280;4073;42.626;25.386;2022-10-31T04:33:12;97504.94;;;17.57;60.65
8061;BME280;4073;42.626;25.386;2022-10-31T04:35:38;97504.03;;;17.61;60.64
8061;BME280;4073;42.626;25.386;2022-10-31T04:38:03;97516.44;;;17.62;60.69
8061;BME280;4073;42.626;25.386;2022-10-31T04:40:29;97515.03;;;17.65;60.82
8061;BME280;4073;42.626;25.386;2022-10-31T04:42:54;97509.31;;;17.66;60.77
8061;BME280;4073;42.626;25.386;2022-10-31T04:45:20;97524.75;;;17.66;60.51
8061;BME280;4073;42.626;25.386;2022-10-31T04:47:45;97517.25;;;17.63;60.56
8061;BME280;4073;42.626;25.386;2022-10-31T04:50:11;97530.94;;;17.66;60.67
8061;BME280;4073;42.626;25.386;2022-10-31T04:52:40;97530.56;;;17.59;60.99
8061;BME280;4073;42.626;25.386;2022-10-31T04:55:06;97530.41;;;17.56;60.89
8061;BME280;4073;42.626;25.386;2022-10-31T04:57:32;97539.94;;;17.53;61.34
8061;BME280;4073;42.626;25.386;2022-10-31T04:59:57;97534.66;;;17.35;61.69
8061;BME280;4073;42.626;25.386;2022-10-31T05:02:23;97550.28;;;17.38;62.22
8061;BME280;4073;42.626;25.386;2022-10-31T05:04:48;97545.47;;;17.35;62.48
8061;BME280;4073;42.626;25.386;2022-10-31T05:07:13;97541.81;;;17.17;62.99
8061;BME280;4073;42.626;25.386;2022-10-31T05:09:39;97557.28;;;17.25;63.12
8061;BME280;4073;42.626;25.386;2022-10-31T05:12:04;97560.81;;;17.26;63.06
8061;BME280;4073;42.626;25.386;2022-10-31T05:14:30;97564.72;;;17.20;63.65
8061;BME280;4073;42.626;25.386;2022-10-31T05:16:55;97568.22;;;17.20;63.42
8061;BME280;4073;42.626;25.386;2022-10-31T05:19:21;97572.78;;;17.33;63.23
8061;BME280;4073;42.626;25.386;2022-10-31T05:21:46;97577.78;;;17.40;63.03
8061;BME280;4073;42.626;25.386;2022-10-31T05:24:11;97562.47;;;17.35;63.07
8061;BME280;4073;42.626;25.386;2022-10-31T05:26:37;97575.38;;;17.38;63.34
8061;BME280;4073;42.626;25.386;2022-10-31T05:29:02;97568.19;;;17.47;63.52
8061;BME280;4073;42.626;25.386;2022-10-31T05:31:28;97577.22;;;17.65;62.85
8061;BME280;4073;42.626;25.386;2022-10-31T05:33:53;97562.09;;;17.64;62.73
8061;BME280;4073;42.626;25.386;2022-10-31T05:36:18;97584.34;;;17.83;62.29
8061;BME280;4073;42.626;25.386;2022-10-31T05:38:44;97579.78;;;17.92;61.72
8061;BME280;4073;42.626;25.386;2022-10-31T05:41:09;97589.06;;;17.99;61.35
8061;BME280;4073;42.626;25.386;2022-10-31T05:43:35;97598.66;;;18.06;61.03
8061;BME280;4073;42.626;25.386;2022-10-31T05:46:00;97594.16;;;18.01;61.29
8061;BME280;4073;42.626;25.386;2022-10-31T05:48:26;97601.06;;;18.07;61.32
8061;BME280;4073;42.626;25.386;2022-10-31T05:50:51;97604.19;;;18.00;61.84
8061;BME280;4073;42.626;25.386;2022-10-31T05:53:17;97600.88;;;18.03;61.54
8061;BME280;4073;42.626;25.386;2022-10-31T05:55:43;97601.06;;;18.07;61.56
8061;BME280;4073;42.626;25.386;2022-10-31T05:58:09;97607.41;;;18.02;61.73
8061;BME280;4073;42.626;25.386;2022-10-31T06:00:35;97594.91;;;18.15;61.60
8061;BME280;4073;42.626;25.386;2022-10-31T06:03:03;97606.94;;;18.31;61.47
8061;BME280;4073;42.626;25.386;2022-10-31T06:05:29;97605.97;;;18.97;59.88
8061;BME280;4073;42.626;25.386;2022-10-31T06:07:55;97605.28;;;19.73;56.50
8061;BME280;4073;42.626;25.386;2022-10-31T06:10:20;97615.19;;;19.94;55.14
8061;BME280;4073;42.626;25.386;2022-10-31T06:12:47;97596.97;;;20.67;52.93
8061;BME280;4073;42.626;25.386;2022-10-31T06:15:13;97604.03;;;22.28;49.56
8061;BME280;4073;42.626;25.386;2022-10-31T06:17:38;97609.22;;;25.19;40.75
8061;BME280;4073;42.626;25.386;2022-10-31T06:20:04;97611.41;;;28.05;34.66
8061;BME280;4073;42.626;25.386;2022-10-31T06:22:30;97614.06;;;30.26;30.15
8061;BME280;4073;42.626;25.386;2022-10-31T06:24:56;97625.22;;;31.98;27.17
8061;BME280;4073;42.626;25.386;2022-10-31T06:27:22;97614.69;;;33.20;24.98
8061;BME280;4073;42.626;25.386;2022-10-31T06:29:48;97623.53;;;34.22;23.63
8061;BME280;4073;42.626;25.386;2022-10-31T06:32:14;97641.44;;;35.08;22.36
8061;BME280;4073;42.626;25.386;2022-10-31T06:34:40;97630.00;;;35.52;21.98
8061;BME280;4073;42.626;25.386;2022-10-31T06:37:07;97641.09;;;35.75;21.62
8061;BME280;4073;42.626;25.386;2022-10-31T06:39:33;97640.25;;;36.21;21.17
8061;BME280;4073;42.626;25.386;2022-10-31T06:41:58;97643.06;;;37.44;20.40
8061;BME280;4073;42.626;25.386;2022-10-31T06:44:24;97640.16;;;38.24;19.47
8061;BME280;4073;42.626;25.386;2022-10-31T06:46:49;97647.78;;;38.77;18.62
8061;BME280;4073;42.626;25.386;2022-10-31T06:49:15;97651.47;;;38.74;18.43
8061;BME280;4073;42.626;25.386;2022-10-31T06:51:40;97646.19;;;38.89;18.55
8061;BME280;4073;42.626;25.386;2022-10-31T06:54:06;97649.28;;;38.94;18.38
8061;BME280;4073;42.626;25.386;2022-10-31T06:56:31;97644.91;;;37.66;18.77
8061;BME280;4073;42.626;25.386;2022-10-31T06:58:57;97650.59;;;36.20;20.35
8061;BME280;4073;42.626;25.386;2022-10-31T07:01:22;97649.41;;;35.33;21.28
8061;BME280;4073;42.626;25.386;2022-10-31T07:03:48;97652.72;;;35.93;21.08
8061;BME280;4073;42.626;25.386;2022-10-31T07:06:13;97647.31;;;34.87;21.56
8061;BME280;4073;42.626;25.386;2022-10-31T07:08:39;97648.63;;;34.49;22.09
8061;BME280;4073;42.626;25.386;2022-10-31T07:11:05;97654.81;;;33.49;23.50
8061;BME280;4073;42.626;25.386;2022-10-31T07:13:30;97645.69;;;32.22;24.62
8061;BME280;4073;42.626;25.386;2022-10-31T07:16:00;97648.94;;;31.78;25.50
8061;BME280;4073;42.626;25.386;2022-10-31T07:18:26;97648.19;;;31.70;25.56
8061;BME280;4073;42.626;25.386;2022-10-31T07:20:52;97647.78;;;31.16;25.94
8061;BME280;4073;42.626;25.386;2022-10-31T07:23:18;97639.03;;;31.98;25.31
8061;BME280;4073;42.626;25.386;2022-10-31T07:25:44;97640.41;;;32.55;24.30
8061;BME280;4073;42.626;25.386;2022-10-31T07:28:09;97633.13;;;32.82;24.33
8061;BME280;4073;42.626;25.386;2022-10-31T07:30:36;97637.94;;;33.29;23.35
8061;BME280;4073;42.626;25.386;2022-10-31T07:33:02;97642.56;;;32.95;24.10
8061;BME280;4073;42.626;25.386;2022-10-31T07:35:28;97636.69;;;32.83;23.93
8061;BME280;4073;42.626;25.386;2022-10-31T07:37:54;97635.81;;;32.17;24.72
8061;BME280;4073;42.626;25.386;2022-10-31T07:40:21;97637.53;;;31.13;25.70
8061;BME280;4073;42.626;25.386;2022-10-31T07:42:49;97635.66;;;29.02;28.58
8061;BME280;4073;42.626;25.386;2022-10-31T07:45:18;97644.09;;;27.58;31.18
8061;BME280;4073;42.626;25.386;2022-10-31T07:47:51;97646.28;;;26.36;33.61
8061;BME280;4073;42.626;25.386;2022-10-31T07:50:26;97635.56;;;24.92;36.45
8061;BME280;4073;42.626;25.386;2022-10-31T07:53:07;97637.69;;;23.73;39.82
8061;BME280;4073;42.626;25.386;2022-10-31T07:55:33;97633.28;;;23.21;41.72
8061;BME280;4073;42.626;25.386;2022-10-31T07:58:04;97642.38;;;23.37;41.77
8061;BME280;4073;42.626;25.386;2022-10-31T08:00:30;97632.25;;;24.28;39.86
8061;BME280;4073;42.626;25.386;2022-10-31T08:03:00;97631.78;;;26.58;35.63
8061;BME280;4073;42.626;25.386;2022-10-31T08:05:27;97633.22;;;29.40;30.84
8061;BME280;4073;42.626;25.386;2022-10-31T08:07:52;97627.63;;;31.71;27.21
8061;BME280;4073;42.626;25.386;2022-10-31T08:10:18;97628.81;;;33.32;24.78
8061;BME280;4073;42.626;25.386;2022-10-31T08:12:44;97644.19;;;34.18;23.31
8061;BME280;4073;42.626;25.386;2022-10-31T08:15:09;97638.59;;;34.85;22.60
8061;BME280;4073;42.626;25.386;2022-10-31T08:17:36;97650.31;;;35.00;22.26
8061;BME280;4073;42.626;25.386;2022-10-31T08:20:02;97643.00;;;36.01;21.09
8061;BME280;4073;42.626;25.386;2022-10-31T08:22:28;97652.09;;;36.44;20.76
8061;BME280;4073;42.626;25.386;2022-10-31T08:24:53;97650.31;;;37.25;19.85
8061;BME280;4073;42.626;25.386;2022-10-31T08:27:18;97655.56;;;38.16;19.12
8061;BME280;4073;42.626;25.386;2022-10-31T08:29:44;97647.78;;;38.90;18.68
8061;BME280;4073;42.626;25.386;2022-10-31T08:32:09;97638.50;;;39.30;17.76
8061;BME280;4073;42.626;25.386;2022-10-31T08:34:35;97649.19;;;39.69;17.48
8061;BME280;4073;42.626;25.386;2022-10-31T08:37:00;97651.47;;;39.37;17.30
8061;BME280;4073;42.626;25.386;2022-10-31T08:39:26;97654.34;;;39.71;16.88
8061;BME280;4073;42.626;25.386;2022-10-31T08:41:51;97662.13;;;40.44;16.64
8061;BME280;4073;42.626;25.386;2022-10-31T08:44:16;97673.16;;;40.91;15.95
8061;BME280;4073;42.626;25.386;2022-10-31T08:46:42;97663.81;;;41.64;15.58
8061;BME280;4073;42.626;25.386;2022-10-31T08:49:07;97642.06;;;39.56;16.66
8061;BME280;4073;42.626;25.386;2022-10-31T08:51:33;97658.34;;;38.16;18.13
8061;BME280;4073;42.626;25.386;2022-10-31T08:53:58;97653.19;;;38.14;18.63
8061;BME280;4073;42.626;25.386;2022-10-31T08:56:24;97669.34;;;38.64;17.72
8061;BME280;4073;42.626;25.386;2022-10-31T08:58:49;97674.81;;;38.39;17.89
8061;BME280;4073;42.626;25.386;2022-10-31T09:01:16;97669.66;;;38.66;17.63
8061;BME280;4073;42.626;25.386;2022-10-31T09:03:41;97675.78;;;39.15;17.55
8061;BME280;4073;42.626;25.386;2022-10-31T09:06:07;97675.38;;;38.75;17.70
8061;BME280;4073;42.626;25.386;2022-10-31T09:08:34;97675.13;;;37.84;18.43
8061;BME280;4073;42.626;25.386;2022-10-31T09:11:01;97666.66;;;36.52;19.48
8061;BME280;4073;42.626;25.386;2022-10-31T09:13:26;97671.13;;;35.41;20.58
8061;BME280;4073;42.626;25.386;2022-10-31T09:15:52;97646.63;;;35.33;20.57
8061;BME280;4073;42.626;25.386;2022-10-31T09:18:22;97663.47;;;34.66;21.20
8061;BME280;4073;42.626;25.386;2022-10-31T09:20:48;97662.91;;;33.26;22.77
8061;BME280;4073;42.626;25.386;2022-10-31T09:23:22;97659.66;;;33.34;22.96
8061;BME280;4073;42.626;25.386;2022-10-31T09:25:48;97660.81;;;33.44;22.75
8061;BME280;4073;42.626;25.386;2022-10-31T09:28:16;97661.44;;;33.62;22.48
8061;BME280;4073;42.626;25.386;2022-10-31T09:30:42;97665.97;;;33.89;21.95
8061;BME280;4073;42.626;25.386;2022-10-31T09:33:10;97656.56;;;33.76;22.43
8061;BME280;4073;42.626;25.386;2022-10-31T09:35:37;97665.59;;;33.40;22.69
8061;BME280;4073;42.626;25.386;2022-10-31T09:38:04;97664.78;;;32.85;23.16
8061;BME280;4073;42.626;25.386;2022-10-31T09:40:36;97663.47;;;33.07;23.10
8061;BME280;4073;42.626;25.386;2022-10-31T09:46:07;97662.44;;;33.34;22.62
8061;BME280;4073;42.626;25.386;2022-10-31T09:48:52;97663.88;;;33.53;22.65
8061;BME280;4073;42.626;25.386;2022-10-31T09:51:34;97670.16;;;33.64;22.16
8061;BME280;4073;42.626;25.386;2022-10-31T09:54:05;97673.44;;;31.90;23.74
8061;BME280;4073;42.626;25.386;2022-10-31T09:56:34;97662.34;;;30.78;25.23
8061;BME280;4073;42.626;25.386;2022-10-31T09:59:03;97670.81;;;29.62;27.06
8061;BME280;4073;42.626;25.386;2022-10-31T10:01:39;97648.59;;;28.28;28.81
8061;BME280;4073;42.626;25.386;2022-10-31T10:07:13;97659.50;;;26.72;31.76
8061;BME280;4073;42.626;25.386;2022-10-31T10:09:42;97655.19;;;26.93;32.01
8061;BME280;4073;42.626;25.386;2022-10-31T10:17:40;97654.09;;;28.58;29.39
8061;BME280;4073;42.626;25.386;2022-10-31T10:26:25;97641.13;;;31.38;25.48
8061;BME280;4073;42.626;25.386;2022-10-31T10:32:01;97645.41;;;31.21;25.18
8061;BME280;4073;42.626;25.386;2022-10-31T10:34:39;97629.66;;;31.29;25.14
8061;BME280;4073;42.626;25.386;2022-10-31T10:37:20;97638.66;;;31.78;24.91
8061;BME280;4073;42.626;25.386;2022-10-31T10:39:51;97629.59;;;32.75;23.36
8061;BME280;4073;42.626;25.386;2022-10-31T10:42:18;97626.75;;;33.47;22.57
8061;BME280;4073;42.626;25.386;2022-10-31T10:45:15;97632.59;;;32.43;23.36
8061;BME280;4073;42.626;25.386;2022-10-31T10:50:39;97626.81;;;29.73;26.59
8061;BME280;4073;42.626;25.386;2022-10-31T10:56:33;97615.25;;;29.03;27.35
8061;BME280;4073;42.626;25.386;2022-10-31T10:59:03;97612.03;;;28.57;27.72
8061;BME280;4073;42.626;25.386;2022-10-31T11:01:29;97614.03;;;28.27;28.62
8061;BME280;4073;42.626;25.386;2022-10-31T11:03:54;97613.81;;;28.10;29.11
8061;BME280;4073;42.626;25.386;2022-10-31T11:06:22;97599.38;;;28.16;29.34
8061;BME280;4073;42.626;25.386;2022-10-31T11:08:51;97611.97;;;28.50;28.99
8061;BME280;4073;42.626;25.386;2022-10-31T11:13:48;97605.69;;;29.37;27.25
8061;BME280;4073;42.626;25.386;2022-10-31T11:18:52;97596.44;;;29.62;26.75
8061;BME280;4073;42.626;25.386;2022-10-31T11:23:48;97603.63;;;29.81;26.32
8061;BME280;4073;42.626;25.386;2022-10-31T11:26:20;97613.94;;;29.40;27.28
8061;BME280;4073;42.626;25.386;2022-10-31T11:28:56;97603.22;;;29.25;27.70
8061;BME280;4073;42.626;25.386;2022-10-31T11:31:23;97603.63;;;29.27;27.21
8061;BME280;4073;42.626;25.386;2022-10-31T11:33:57;97602.47;;;28.84;27.57
8061;BME280;4073;42.626;25.386;2022-10-31T11:36:26;97593.22;;;28.63;28.13
8061;BME280;4073;42.626;25.386;2022-10-31T11:38:53;97589.19;;;28.17;28.93
8061;BME280;4073;42.626;25.386;2022-10-31T11:41:31;97592.03;;;27.94;29.54
8061;BME280;4073;42.626;25.386;2022-10-31T11:44:02;97586.91;;;28.26;29.56
8061;BME280;4073;42.626;25.386;2022-10-31T11:46:38;97589.97;;;28.54;29.13
8061;BME280;4073;42.626;25.386;2022-10-31T11:49:10;97586.97;;;28.66;28.89
8061;BME280;4073;42.626;25.386;2022-10-31T11:51:39;97584.06;;;28.92;28.19
8061;BME280;4073;42.626;25.386;2022-10-31T11:54:05;97584.97;;;29.06;28.26
8061;BME280;4073;42.626;25.386;2022-10-31T11:56:38;97581.31;;;29.39;27.38
8061;BME280;4073;42.626;25.386;2022-10-31T11:59:17;97573.44;;;29.41;27.43
8061;BME280;4073;42.626;25.386;2022-10-31T12:01:49;97570.31;;;29.42;27.53
8061;BME280;4073;42.626;25.386;2022-10-31T12:04:15;97573.25;;;29.16;27.41
8061;BME280;4073;42.626;25.386;2022-10-31T12:06:43;97569.31;;;29.14;28.15
8061;BME280;4073;42.626;25.386;2022-10-31T12:09:27;97576.84;;;29.20;27.82
8061;BME280;4073;42.626;25.386;2022-10-31T12:28:56;97580.38;;;28.37;29.39
8061;BME280;4073;42.626;25.386;2022-10-31T12:31:39;97581.63;;;28.07;29.45
8061;BME280;4073;42.626;25.386;2022-10-31T12:42:46;97575.63;;;27.72;30.18
8061;BME280;4073;42.626;25.386;2022-10-31T12:45:29;97585.56;;;27.80;30.34
8061;BME280;4073;42.626;25.386;2022-10-31T12:50:42;97584.28;;;28.00;29.93
8061;BME280;4073;42.626;25.386;2022-10-31T12:59:36;97592.94;;;26.75;32.04
8061;BME280;4073;42.626;25.386;2022-10-31T13:02:42;97584.53;;;26.23;33.08
8061;BME280;4073;42.626;25.386;2022-10-31T13:05:30;97587.59;;;25.99;33.21
8061;BME280;4073;42.626;25.386;2022-10-31T13:08:04;97589.16;;;25.81;33.81
8061;BME280;4073;42.626;25.386;2022-10-31T13:10:36;97588.69;;;25.79;34.20
8061;BME280;4073;42.626;25.386;2022-10-31T13:13:21;97586.06;;;25.82;34.13
8061;BME280;4073;42.626;25.386;2022-10-31T13:15:51;97592.03;;;26.07;33.74
8061;BME280;4073;42.626;25.386;2022-10-31T13:18:46;97570.47;;;26.24;33.11
8061;BME280;4073;42.626;25.386;2022-10-31T13:21:20;97586.31;;;26.34;33.18
8061;BME280;4073;42.626;25.386;2022-10-31T13:23:49;97586.72;;;26.36;33.03
8061;BME280;4073;42.626;25.386;2022-10-31T13:27:10;97591.69;;;26.08;33.13
8061;BME280;4073;42.626;25.386;2022-10-31T13:29:32;97601.38;;;25.87;33.85
8061;BME280;4073;42.626;25.386;2022-10-31T13:32:00;97583.78;;;25.69;33.92
8061;BME280;4073;42.626;25.386;2022-10-31T13:34:36;97593.78;;;25.42;34.38
8061;BME280;4073;42.626;25.386;2022-10-31T13:37:27;97593.88;;;25.14;35.11
8061;BME280;4073;42.626;25.386;2022-10-31T13:43:08;97593.09;;;24.83;35.87
8061;BME280;4073;42.626;25.386;2022-10-31T13:45:35;97575.91;;;24.82;36.28
8061;BME280;4073;42.626;25.386;2022-10-31T13:48:19;97600.16;;;25.15;35.48
8061;BME280;4073;42.626;25.386;2022-10-31T13:51:06;97602.81;;;24.96;36.01
8061;BME280;4073;42.626;25.386;2022-10-31T13:53:42;97601.41;;;24.86;36.36
8061;BME280;4073;42.626;25.386;2022-10-31T13:58:34;97602.28;;;24.90;36.63
8061;BME280;4073;42.626;25.386;2022-10-31T14:03:33;97603.56;;;24.50;37.29
8061;BME280;4073;42.626;25.386;2022-10-31T14:06:00;97615.44;;;24.42;37.80
8061;BME280;4073;42.626;25.386;2022-10-31T14:08:33;97599.63;;;24.20;38.41
8061;BME280;4073;42.626;25.386;2022-10-31T14:10:59;97606.97;;;24.04;38.71
8061;BME280;4073;42.626;25.386;2022-10-31T14:16:00;97589.06;;;23.79;39.32
8061;BME280;4073;42.626;25.386;2022-10-31T14:18:35;97604.97;;;23.89;39.21
8061;BME280;4073;42.626;25.386;2022-10-31T14:21:26;97607.94;;;23.84;39.53
8061;BME280;4073;42.626;25.386;2022-10-31T14:23:53;97619.25;;;23.70;39.85
8061;BME280;4073;42.626;25.386;2022-10-31T14:26:30;97601.78;;;23.47;40.27
8061;BME280;4073;42.626;25.386;2022-10-31T14:29:20;97615.28;;;23.56;40.66
8061;BME280;4073;42.626;25.386;2022-10-31T14:34:41;97615.31;;;23.44;40.94
8061;BME280;4073;42.626;25.386;2022-10-31T14:37:14;97612.47;;;23.40;41.28
8061;BME280;4073;42.626;25.386;2022-10-31T14:45:10;97617.16;;;23.28;41.79
8061;BME280;4073;42.626;25.386;2022-10-31T14:50:41;97625.53;;;22.99;42.97
8061;BME280;4073;42.626;25.386;2022-10-31T14:53:17;97625.44;;;22.95;42.96
8061;BME280;4073;42.626;25.386;2022-10-31T14:55:47;97627.47;;;22.86;43.27
8061;BME280;4073;42.626;25.386;2022-10-31T14:58:21;97619.59;;;22.72;43.69
8061;BME280;4073;42.626;25.386;2022-10-31T15:00:49;97626.53;;;22.70;43.85
8061;BME280;4073;42.626;25.386;2022-10-31T15:03:24;97632.22;;;22.65;43.99
8061;BME280;4073;42.626;25.386;2022-10-31T15:05:54;97633.19;;;22.48;44.54
8061;BME280;4073;42.626;25.386;2022-10-31T15:08:31;97635.50;;;22.38;44.99
8061;BME280;4073;42.626;25.386;2022-10-31T15:10:57;97615.34;;;22.18;45.77
8061;BME280;4073;42.626;25.386;2022-10-31T15:13:22;97629.91;;;22.22;45.55
8061;BME280;4073;42.626;25.386;2022-10-31T15:15:50;97635.22;;;22.19;45.96
8061;BME280;4073;42.626;25.386;2022-10-31T15:18:18;97638.00;;;22.10;46.38
8061;BME280;4073;42.626;25.386;2022-10-31T15:20:45;97636.25;;;21.94;46.64
8061;BME280;4073;42.626;25.386;2022-10-31T15:23:24;97645.59;;;21.84;47.33
8061;BME280;4073;42.626;25.386;2022-10-31T15:25:57;97642.44;;;21.82;47.39
8061;BME280;4073;42.626;25.386;2022-10-31T15:28:25;97642.63;;;21.77;47.38
8061;BME280;4073;42.626;25.386;2022-10-31T15:30:58;97639.00;;;21.65;47.85
8061;BME280;4073;42.626;25.386;2022-10-31T15:33:38;97646.38;;;21.64;48.33
8061;BME280;4073;42.626;25.386;2022-10-31T15:36:04;97651.53;;;21.57;48.29